sensor_id;sensor_type;location;lat;lon;timestamp;pressure;altitude;pressure_sealevel;temperature;humidity
64080;BME280;51042;49.696;10.808;2023-02-15T00:01:09;99965.72;;;-0.87;100.00
64080;BME280;51042;49.696;10.808;2023-02-15T00:03:35;99975.88;;;-0.84;100.00
64080;BME280;51042;49.696;10.808;2023-02-15T00:06:00;99968.56;;;-0.83;100.00
64080;BME280;51042;49.696;10.808;2023-02-15T00:08:25;99978.84;;;-0.76;100.00
64080;BME280;51042;49.696;10.808;2023-02-15T00:10:50;99971.88;;;-0.77;100.00
64080;BME280;51042;49.696;10.808;2023-02-15T00:13:16;99968.22;;;-0.73;100.00
64080;BME280;51042;49.696;10.808;2023-02-15T00:15:41;99965.22;;;-0.80;100.00
64080;BME280;51042;49.696;10.808;2023-02-15T00:18:06;99968.72;;;-0.79;100.00
64080;BME280;51042;49.696;10.808;2023-02-15T00:20:31;99958.91;;;-0.84;100.00
64080;BME280;51042;49.696;10.808;2023-02-15T00:22:56;99956.53;;;-0.86;100.00
64080;BME280;51042;49.696;10.808;2023-02-15T00:25:22;99955.41;;;-0.85;100.00
64080;BME280;51042;49.696;10.808;2023-02-15T00:27:47;99961.91;;;-0.86;100.00
64080;BME280;51042;49.696;10.808;2023-02-15T00:30:12;99958.56;;;-0.83;100.00
64080;BME280;51042;49.696;10.808;2023-02-15T00:32:37;99961.56;;;-0.75;100.00
64080;BME280;51042;49.696;10.808;2023-02-15T00:35:02;99961.44;;;-0.79;100.00
64080;BME280;51042;49.696;10.808;2023-02-15T00:37:28;99961.88;;;-0.77;100.00
64080;BME280;51042;49.696;10.808;2023-02-15T00:39:53;99961.59;;;-0.84;100.00
64080;BME280;51042;49.696;10.808;2023-02-15T00:42:18;99958.13;;;-0.85;100.00
64080;BME280;51042;49.696;10.808;2023-02-15T00:44:43;99958.38;;;-0.77;100.00
64080;BME280;51042;49.696;10.808;2023-02-15T00:47:09;99953.31;;;-0.70;100.00
64080;BME280;51042;49.696;10.808;2023-02-15T00:49:34;99955.25;;;-0.79;100.00
64080;BME280;51042;49.696;10.808;2023-02-15T00:51:59;99949.06;;;-0.89;100.00
64080;BME280;51042;49.696;10.808;2023-02-15T00:54:24;99952.72;;;-0.85;100.00
64080;BME280;51042;49.696;10.808;2023-02-15T00:56:49;99945.59;;;-0.89;100.00
64080;BME280;51042;49.696;10.808;2023-02-15T00:59:15;99949.53;;;-0.87;100.00
64080;BME280;51042;49.696;10.808;2023-02-15T01:01:40;99945.44;;;-0.84;100.00
64080;BME280;51042;49.696;10.808;2023-02-15T01:04:05;99944.59;;;-0.76;100.00
64080;BME280;51042;49.696;10.808;2023-02-15T01:06:30;99938.28;;;-0.80;100.00
64080;BME280;51042;49.696;10.808;2023-02-15T01:08:55;99939.38;;;-0.81;100.00
64080;BME280;51042;49.696;10.808;2023-02-15T01:11:21;99941.78;;;-0.88;100.00
64080;BME280;51042;49.696;10.808;2023-02-15T01:13:54;99938.59;;;-0.82;100.00
64080;BME280;51042;49.696;10.808;2023-02-15T01:16:19;99932.22;;;-0.77;100.00
64080;BME280;51042;49.696;10.808;2023-02-15T01:18:44;99929.41;;;-0.80;100.00
64080;BME280;51042;49.696;10.808;2023-02-15T01:21:11;99935.44;;;-0.84;100.00
64080;BME280;51042;49.696;10.808;2023-02-15T01:23:36;99934.19;;;-0.95;100.00
64080;BME280;51042;49.696;10.808;2023-02-15T01:26:02;99929.75;;;-0.99;100.00
64080;BME280;51042;49.696;10.808;2023-02-15T01:28:28;99928.66;;;-0.98;100.00
64080;BME280;51042;49.696;10.808;2023-02-15T01:30:53;99924.06;;;-0.98;100.00
64080;BME280;51042;49.696;10.808;2023-02-15T01:33:18;99921.38;;;-0.98;100.00
64080;BME280;51042;49.696;10.808;2023-02-15T01:35:44;99919.31;;;-1.01;100.00
64080;BME280;51042;49.696;10.808;2023-02-15T01:38:10;99917.88;;;-0.98;100.00
64080;BME280;51042;49.696;10.808;2023-02-15T01:40:35;99915.50;;;-1.00;100.00
64080;BME280;51042;49.696;10.808;2023-02-15T01:43:00;99915.06;;;-1.02;100.00
64080;BME280;51042;49.696;10.808;2023-02-15T01:45:27;99910.13;;;-1.00;100.00
64080;BME280;51042;49.696;10.808;2023-02-15T01:48:06;99912.00;;;-1.00;100.00
64080;BME280;51042;49.696;10.808;2023-02-15T01:50:38;99917.56;;;-0.97;100.00
64080;BME280;51042;49.696;10.808;2023-02-15T01:55:33;99914.09;;;-0.97;100.00
64080;BME280;51042;49.696;10.808;2023-02-15T01:57:59;99905.22;;;-0.98;100.00
64080;BME280;51042;49.696;10.808;2023-02-15T02:00:25;99904.41;;;-0.98;100.00
64080;BME280;51042;49.696;10.808;2023-02-15T02:02:50;99897.91;;;-0.97;100.00
64080;BME280;51042;49.696;10.808;2023-02-15T02:05:18;99896.66;;;-1.00;100.00
64080;BME280;51042;49.696;10.808;2023-02-15T02:07:44;99895.41;;;-1.02;100.00
64080;BME280;51042;49.696;10.808;2023-02-15T02:10:11;99903.31;;;-1.06;100.00
64080;BME280;51042;49.696;10.808;2023-02-15T02:12:37;99889.34;;;-0.99;100.00
64080;BME280;51042;49.696;10.808;2023-02-15T02:15:03;99891.25;;;-1.00;100.00
64080;BME280;51042;49.696;10.808;2023-02-15T02:17:33;99878.75;;;-0.96;100.00
64080;BME280;51042;49.696;10.808;2023-02-15T02:27:39;99876.81;;;-0.95;100.00
64080;BME280;51042;49.696;10.808;2023-02-15T02:30:10;99881.44;;;-0.96;100.00
64080;BME280;51042;49.696;10.808;2023-02-15T02:32:52;99875.09;;;-1.00;100.00
64080;BME280;51042;49.696;10.808;2023-02-15T02:35:33;99870.13;;;-0.89;100.00
64080;BME280;51042;49.696;10.808;2023-02-15T02:38:07;99877.78;;;-0.91;100.00
64080;BME280;51042;49.696;10.808;2023-02-15T02:43:32;99877.84;;;-1.08;100.00
64080;BME280;51042;49.696;10.808;2023-02-15T02:46:32;99869.88;;;-1.05;100.00
64080;BME280;51042;49.696;10.808;2023-02-15T02:48:49;99876.84;;;-1.04;100.00
64080;BME280;51042;49.696;10.808;2023-02-15T02:51:14;99868.66;;;-1.07;100.00
64080;BME280;51042;49.696;10.808;2023-02-15T02:53:46;99870.69;;;-1.13;100.00
64080;BME280;51042;49.696;10.808;2023-02-15T02:56:21;99867.84;;;-1.16;100.00
64080;BME280;51042;49.696;10.808;2023-02-15T02:58:50;99862.47;;;-1.16;100.00
64080;BME280;51042;49.696;10.808;2023-02-15T03:01:19;99861.84;;;-1.13;100.00
64080;BME280;51042;49.696;10.808;2023-02-15T03:03:49;99863.91;;;-1.19;100.00
64080;BME280;51042;49.696;10.808;2023-02-15T03:06:20;99874.78;;;-1.07;100.00
64080;BME280;51042;49.696;10.808;2023-02-15T03:08:51;99870.50;;;-0.99;100.00
64080;BME280;51042;49.696;10.808;2023-02-15T03:11:18;99871.78;;;-0.97;100.00
64080;BME280;51042;49.696;10.808;2023-02-15T03:13:44;99878.44;;;-1.03;100.00
64080;BME280;51042;49.696;10.808;2023-02-15T03:16:10;99867.22;;;-1.13;100.00
64080;BME280;51042;49.696;10.808;2023-02-15T03:18:53;99862.47;;;-1.25;100.00
64080;BME280;51042;49.696;10.808;2023-02-15T03:21:24;99869.31;;;-1.28;100.00
64080;BME280;51042;49.696;10.808;2023-02-15T03:23:52;99870.41;;;-1.29;100.00
64080;BME280;51042;49.696;10.808;2023-02-15T03:26:18;99862.81;;;-1.27;100.00
64080;BME280;51042;49.696;10.808;2023-02-15T03:28:45;99859.66;;;-1.29;100.00
64080;BME280;51042;49.696;10.808;2023-02-15T03:31:13;99870.72;;;-1.30;100.00
64080;BME280;51042;49.696;10.808;2023-02-15T03:33:43;99876.91;;;-1.30;100.00
64080;BME280;51042;49.696;10.808;2023-02-15T03:36:11;99868.53;;;-1.37;100.00
64080;BME280;51042;49.696;10.808;2023-02-15T03:38:41;99863.94;;;-1.28;100.00
64080;BME280;51042;49.696;10.808;2023-02-15T03:41:08;99859.34;;;-1.27;100.00
64080;BME280;51042;49.696;10.808;2023-02-15T03:43:45;99854.25;;;-1.29;100.00
64080;BME280;51042;49.696;10.808;2023-02-15T03:46:30;99859.66;;;-1.29;100.00
64080;BME280;51042;49.696;10.808;2023-02-15T03:48:58;99858.06;;;-1.30;100.00
64080;BME280;51042;49.696;10.808;2023-02-15T03:51:26;99864.25;;;-1.29;100.00
64080;BME280;51042;49.696;10.808;2023-02-15T03:53:59;99860.75;;;-1.30;100.00
64080;BME280;51042;49.696;10.808;2023-02-15T03:56:25;99866.13;;;-1.30;100.00
64080;BME280;51042;49.696;10.808;2023-02-15T03:58:50;99871.53;;;-1.21;100.00
64080;BME280;51042;49.696;10.808;2023-02-15T04:01:35;99871.03;;;-1.14;100.00
64080;BME280;51042;49.696;10.808;2023-02-15T04:04:30;99871.16;;;-1.11;100.00
64080;BME280;51042;49.696;10.808;2023-02-15T04:06:56;99876.38;;;-1.06;100.00
64080;BME280;51042;49.696;10.808;2023-02-15T04:09:22;99879.72;;;-1.09;100.00
64080;BME280;51042;49.696;10.808;2023-02-15T04:12:05;99871.78;;;-1.05;100.00
64080;BME280;51042;49.696;10.808;2023-02-15T04:14:30;99870.69;;;-1.04;100.00
64080;BME280;51042;49.696;10.808;2023-02-15T04:17:14;99875.94;;;-1.08;100.00
64080;BME280;51042;49.696;10.808;2023-02-15T04:19:39;99876.06;;;-1.04;100.00
64080;BME280;51042;49.696;10.808;2023-02-15T04:22:23;99874.66;;;-1.02;100.00
64080;BME280;51042;49.696;10.808;2023-02-15T04:25:07;99867.84;;;-1.08;100.00
64080;BME280;51042;49.696;10.808;2023-02-15T04:27:38;99874.03;;;-1.16;100.00
64080;BME280;51042;49.696;10.808;2023-02-15T04:30:04;99864.84;;;-1.15;100.00
64080;BME280;51042;49.696;10.808;2023-02-15T04:32:29;99861.84;;;-1.22;100.00
64080;BME280;51042;49.696;10.808;2023-02-15T04:34:55;99862.81;;;-1.35;100.00
64080;BME280;51042;49.696;10.808;2023-02-15T04:37:20;99869.19;;;-1.31;100.00
64080;BME280;51042;49.696;10.808;2023-02-15T04:39:45;99869.44;;;-1.24;100.00
64080;BME280;51042;49.696;10.808;2023-02-15T04:42:10;99866.59;;;-1.19;100.00
64080;BME280;51042;49.696;10.808;2023-02-15T04:44:35;99864.88;;;-1.24;100.00
64080;BME280;51042;49.696;10.808;2023-02-15T04:47:00;99869.31;;;-1.36;100.00
64080;BME280;51042;49.696;10.808;2023-02-15T04:49:26;99863.94;;;-1.36;100.00
64080;BME280;51042;49.696;10.808;2023-02-15T04:51:51;99859.19;;;-1.39;100.00
64080;BME280;51042;49.696;10.808;2023-02-15T04:54:16;99867.09;;;-1.43;100.00
64080;BME280;51042;49.696;10.808;2023-02-15T04:56:42;99859.69;;;-1.46;100.00
64080;BME280;51042;49.696;10.808;2023-02-15T04:59:09;99850.69;;;-1.50;100.00
64080;BME280;51042;49.696;10.808;2023-02-15T05:01:34;99849.88;;;-1.50;100.00
64080;BME280;51042;49.696;10.808;2023-02-15T05:03:59;99851.13;;;-1.48;100.00
64080;BME280;51042;49.696;10.808;2023-02-15T05:06:24;99850.19;;;-1.52;100.00
64080;BME280;51042;49.696;10.808;2023-02-15T05:08:50;99840.41;;;-1.56;100.00
64080;BME280;51042;49.696;10.808;2023-02-15T05:11:15;99841.81;;;-1.59;100.00
64080;BME280;51042;49.696;10.808;2023-02-15T05:13:40;99833.59;;;-1.62;100.00
64080;BME280;51042;49.696;10.808;2023-02-15T05:16:05;99841.34;;;-1.61;100.00
64080;BME280;51042;49.696;10.808;2023-02-15T05:18:30;99840.69;;;-1.58;100.00
64080;BME280;51042;49.696;10.808;2023-02-15T05:20:57;99840.84;;;-1.54;100.00
64080;BME280;51042;49.696;10.808;2023-02-15T05:23:22;99836.25;;;-1.54;100.00
64080;BME280;51042;49.696;10.808;2023-02-15T05:25:48;99839.13;;;-1.50;100.00
64080;BME280;51042;49.696;10.808;2023-02-15T05:28:32;99828.66;;;-1.60;100.00
64080;BME280;51042;49.696;10.808;2023-02-15T05:31:08;99829.00;;;-1.62;100.00
64080;BME280;51042;49.696;10.808;2023-02-15T05:33:34;99824.88;;;-1.59;100.00
64080;BME280;51042;49.696;10.808;2023-02-15T05:36:00;99817.59;;;-1.59;100.00
64080;BME280;51042;49.696;10.808;2023-02-15T05:38:25;99823.59;;;-1.53;100.00
64080;BME280;51042;49.696;10.808;2023-02-15T05:40:51;99827.56;;;-1.51;100.00
64080;BME280;51042;49.696;10.808;2023-02-15T05:43:16;99826.75;;;-1.51;100.00
64080;BME280;51042;49.696;10.808;2023-02-15T05:45:45;99834.34;;;-1.45;100.00
64080;BME280;51042;49.696;10.808;2023-02-15T05:48:10;99826.91;;;-1.48;100.00
64080;BME280;51042;49.696;10.808;2023-02-15T05:50:36;99827.06;;;-1.53;100.00
64080;BME280;51042;49.696;10.808;2023-02-15T05:53:01;99824.69;;;-1.46;100.00
64080;BME280;51042;49.696;10.808;2023-02-15T05:55:26;99828.78;;;-1.40;100.00
64080;BME280;51042;49.696;10.808;2023-02-15T05:57:51;99823.41;;;-1.40;100.00
64080;BME280;51042;49.696;10.808;2023-02-15T06:00:17;99827.69;;;-1.39;100.00
64080;BME280;51042;49.696;10.808;2023-02-15T06:02:42;99826.59;;;-1.46;100.00
64080;BME280;51042;49.696;10.808;2023-02-15T06:05:07;99819.94;;;-1.49;100.00
64080;BME280;51042;49.696;10.808;2023-02-15T06:07:32;99820.72;;;-1.48;100.00
64080;BME280;51042;49.696;10.808;2023-02-15T06:09:57;99827.06;;;-1.44;100.00
64080;BME280;51042;49.696;10.808;2023-02-15T06:12:22;99826.72;;;-1.43;100.00
64080;BME280;51042;49.696;10.808;2023-02-15T06:14:48;99831.66;;;-1.45;100.00
64080;BME280;51042;49.696;10.808;2023-02-15T06:17:13;99825.66;;;-1.50;100.00
64080;BME280;51042;49.696;10.808;2023-02-15T06:19:38;99822.47;;;-1.52;100.00
64080;BME280;51042;49.696;10.808;2023-02-15T06:22:03;99829.16;;;-1.58;100.00
64080;BME280;51042;49.696;10.808;2023-02-15T06:24:28;99830.09;;;-1.72;100.00
64080;BME280;51042;49.696;10.808;2023-02-15T06:26:53;99837.09;;;-1.79;100.00
64080;BME280;51042;49.696;10.808;2023-02-15T06:29:19;99832.00;;;-1.72;100.00
64080;BME280;51042;49.696;10.808;2023-02-15T06:31:44;99831.88;;;-1.67;100.00
64080;BME280;51042;49.696;10.808;2023-02-15T06:34:09;99829.78;;;-1.79;100.00
64080;BME280;51042;49.696;10.808;2023-02-15T06:36:34;99830.44;;;-1.90;100.00
64080;BME280;51042;49.696;10.808;2023-02-15T06:39:00;99818.13;;;-1.91;100.00
64080;BME280;51042;49.696;10.808;2023-02-15T06:41:25;99832.19;;;-1.94;100.00
64080;BME280;51042;49.696;10.808;2023-02-15T06:43:50;99830.44;;;-1.99;100.00
64080;BME280;51042;49.696;10.808;2023-02-15T06:46:15;99833.63;;;-1.97;100.00
64080;BME280;51042;49.696;10.808;2023-02-15T06:48:41;99835.19;;;-1.96;100.00
64080;BME280;51042;49.696;10.808;2023-02-15T06:51:06;99839.94;;;-1.93;100.00
64080;BME280;51042;49.696;10.808;2023-02-15T06:53:31;99844.22;;;-1.92;100.00
64080;BME280;51042;49.696;10.808;2023-02-15T06:56:00;99846.44;;;-1.85;100.00
64080;BME280;51042;49.696;10.808;2023-02-15T06:58:25;99854.31;;;-1.72;100.00
64080;BME280;51042;49.696;10.808;2023-02-15T07:00:51;99854.94;;;-1.66;100.00
64080;BME280;51042;49.696;10.808;2023-02-15T07:03:16;99854.50;;;-1.68;100.00
64080;BME280;51042;49.696;10.808;2023-02-15T07:05:41;99859.56;;;-1.75;100.00
64080;BME280;51042;49.696;10.808;2023-02-15T07:08:08;99859.38;;;-1.79;100.00
64080;BME280;51042;49.696;10.808;2023-02-15T07:10:33;99851.97;;;-1.82;100.00
64080;BME280;51042;49.696;10.808;2023-02-15T07:12:58;99845.16;;;-1.88;100.00
64080;BME280;51042;49.696;10.808;2023-02-15T07:15:23;99846.44;;;-1.85;100.00
64080;BME280;51042;49.696;10.808;2023-02-15T07:17:49;99841.81;;;-1.76;100.00
64080;BME280;51042;49.696;10.808;2023-02-15T07:20:20;99848.94;;;-1.63;100.00
64080;BME280;51042;49.696;10.808;2023-02-15T07:22:46;99834.38;;;-1.62;100.00
64080;BME280;51042;49.696;10.808;2023-02-15T07:25:12;99838.81;;;-1.66;100.00
64080;BME280;51042;49.696;10.808;2023-02-15T07:27:37;99840.56;;;-1.61;100.00
64080;BME280;51042;49.696;10.808;2023-02-15T07:30:02;99840.88;;;-1.63;100.00
64080;BME280;51042;49.696;10.808;2023-02-15T07:32:29;99841.00;;;-1.59;100.00
64080;BME280;51042;49.696;10.808;2023-02-15T07:34:54;99843.84;;;-1.47;100.00
64080;BME280;51042;49.696;10.808;2023-02-15T07:37:20;99847.66;;;-1.40;100.00
64080;BME280;51042;49.696;10.808;2023-02-15T07:39:45;99840.50;;;-1.36;100.00
64080;BME280;51042;49.696;10.808;2023-02-15T07:42:10;99839.22;;;-1.30;100.00
64080;BME280;51042;49.696;10.808;2023-02-15T07:44:35;99836.19;;;-1.19;100.00
64080;BME280;51042;49.696;10.808;2023-02-15T07:47:00;99839.16;;;-1.12;100.00
64080;BME280;51042;49.696;10.808;2023-02-15T07:49:25;99840.13;;;-1.08;100.00
64080;BME280;51042;49.696;10.808;2023-02-15T07:51:51;99844.28;;;-1.19;100.00
64080;BME280;51042;49.696;10.808;2023-02-15T07:54:16;99844.72;;;-1.17;100.00
64080;BME280;51042;49.696;10.808;2023-02-15T07:56:41;99848.50;;;-1.10;100.00
64080;BME280;51042;49.696;10.808;2023-02-15T07:59:06;99846.31;;;-1.16;100.00
64080;BME280;51042;49.696;10.808;2023-02-15T08:01:34;99846.19;;;-1.20;100.00
64080;BME280;51042;49.696;10.808;2023-02-15T08:04:00;99851.88;;;-1.21;100.00
64080;BME280;51042;49.696;10.808;2023-02-15T08:06:26;99853.75;;;-1.13;100.00
64080;BME280;51042;49.696;10.808;2023-02-15T08:08:52;99856.91;;;-1.11;100.00
64080;BME280;51042;49.696;10.808;2023-02-15T08:11:19;99860.09;;;-1.18;100.00
64080;BME280;51042;49.696;10.808;2023-02-15T08:13:57;99855.72;;;-1.31;100.00
64080;BME280;51042;49.696;10.808;2023-02-15T08:16:25;99849.34;;;-1.27;100.00
64080;BME280;51042;49.696;10.808;2023-02-15T08:18:51;99855.88;;;-1.45;100.00
64080;BME280;51042;49.696;10.808;2023-02-15T08:21:17;99851.78;;;-1.51;100.00
64080;BME280;51042;49.696;10.808;2023-02-15T08:23:42;99850.97;;;-1.43;100.00
64080;BME280;51042;49.696;10.808;2023-02-15T08:26:08;99837.84;;;-1.44;100.00
64080;BME280;51042;49.696;10.808;2023-02-15T08:28:33;99844.78;;;-1.35;100.00
64080;BME280;51042;49.696;10.808;2023-02-15T08:31:07;99852.78;;;-1.09;100.00
64080;BME280;51042;49.696;10.808;2023-02-15T08:33:33;99850.97;;;-0.88;100.00
64080;BME280;51042;49.696;10.808;2023-02-15T08:36:03;99846.22;;;-0.91;100.00
64080;BME280;51042;49.696;10.808;2023-02-15T08:38:28;99840.94;;;-0.78;100.00
64080;BME280;51042;49.696;10.808;2023-02-15T08:40:53;99844.38;;;-0.69;100.00
64080;BME280;51042;49.696;10.808;2023-02-15T08:43:18;99838.50;;;-0.63;100.00
64080;BME280;51042;49.696;10.808;2023-02-15T08:45:44;99827.72;;;-0.63;100.00
64080;BME280;51042;49.696;10.808;2023-02-15T08:48:09;99831.38;;;-0.67;100.00
64080;BME280;51042;49.696;10.808;2023-02-15T08:50:34;99824.56;;;-1.03;100.00
64080;BME280;51042;49.696;10.808;2023-02-15T08:52:59;99823.63;;;-1.07;100.00
64080;BME280;51042;49.696;10.808;2023-02-15T08:55:24;99829.78;;;-0.98;100.00
64080;BME280;51042;49.696;10.808;2023-02-15T08:57:50;99821.13;;;-0.83;100.00
64080;BME280;51042;49.696;10.808;2023-02-15T09:00:15;99829.28;;;-0.91;100.00
64080;BME280;51042;49.696;10.808;2023-02-15T09:02:41;99826.97;;;-1.18;100.00
64080;BME280;51042;49.696;10.808;2023-02-15T09:05:06;99833.84;;;-1.30;100.00
64080;BME280;51042;49.696;10.808;2023-02-15T09:07:31;99833.28;;;-1.06;100.00
64080;BME280;51042;49.696;10.808;2023-02-15T09:09:56;99842.25;;;-0.85;100.00
64080;BME280;51042;49.696;10.808;2023-02-15T09:12:21;99839.00;;;-0.69;100.00
64080;BME280;51042;49.696;10.808;2023-02-15T09:14:46;99843.50;;;-0.53;100.00
64080;BME280;51042;49.696;10.808;2023-02-15T09:17:12;99850.16;;;-0.50;100.00
64080;BME280;51042;49.696;10.808;2023-02-15T09:19:37;99846.00;;;-0.48;100.00
64080;BME280;51042;49.696;10.808;2023-02-15T09:22:02;99841.31;;;-0.30;100.00
64080;BME280;51042;49.696;10.808;2023-02-15T09:24:27;99840.34;;;-0.25;100.00
64080;BME280;51042;49.696;10.808;2023-02-15T09:26:56;99852.63;;;-0.16;100.00
64080;BME280;51042;49.696;10.808;2023-02-15T09:29:21;99839.22;;;-0.04;100.00
64080;BME280;51042;49.696;10.808;2023-02-15T09:31:48;99851.00;;;-0.08;100.00
64080;BME280;51042;49.696;10.808;2023-02-15T09:34:15;99849.38;;;-0.01;100.00
64080;BME280;51042;49.696;10.808;2023-02-15T09:36:41;99850.69;;;-0.07;100.00
64080;BME280;51042;49.696;10.808;2023-02-15T09:39:07;99839.94;;;-0.15;100.00
64080;BME280;51042;49.696;10.808;2023-02-15T09:41:48;99852.59;;;-0.07;100.00
64080;BME280;51042;49.696;10.808;2023-02-15T09:47:12;99847.31;;;-0.04;100.00
64080;BME280;51042;49.696;10.808;2023-02-15T09:49:48;99846.13;;;0.06;100.00
64080;BME280;51042;49.696;10.808;2023-02-15T09:55:08;99848.28;;;0.33;100.00
64080;BME280;51042;49.696;10.808;2023-02-15T09:57:51;99851.69;;;0.43;100.00
64080;BME280;51042;49.696;10.808;2023-02-15T10:10:31;99847.00;;;-0.52;100.00
64080;BME280;51042;49.696;10.808;2023-02-15T10:13:02;99839.66;;;-0.22;100.00
64080;BME280;51042;49.696;10.808;2023-02-15T10:15:52;99840.84;;;-0.11;100.00
64080;BME280;51042;49.696;10.808;2023-02-15T10:20:57;99827.13;;;0.23;100.00
64080;BME280;51042;49.696;10.808;2023-02-15T10:26:07;99810.03;;;-0.52;100.00
64080;BME280;51042;49.696;10.808;2023-02-15T10:28:42;99810.91;;;-0.60;100.00
64080;BME280;51042;49.696;10.808;2023-02-15T10:31:24;99807.22;;;-0.55;100.00
64080;BME280;51042;49.696;10.808;2023-02-15T10:34:33;99805.84;;;-0.41;100.00
64080;BME280;51042;49.696;10.808;2023-02-15T10:36:42;99805.00;;;-0.12;100.00
64080;BME280;51042;49.696;10.808;2023-02-15T10:39:22;99805.72;;;-0.03;100.00
64080;BME280;51042;49.696;10.808;2023-02-15T10:41:53;99810.78;;;-0.22;100.00
64080;BME280;51042;49.696;10.808;2023-02-15T10:46:59;99817.34;;;-0.52;100.00
64080;BME280;51042;49.696;10.808;2023-02-15T10:52:24;99807.38;;;-0.10;100.00
64080;BME280;51042;49.696;10.808;2023-02-15T11:00:18;99784.47;;;0.62;100.00
64080;BME280;51042;49.696;10.808;2023-02-15T11:05:24;99783.06;;;1.01;100.00
64080;BME280;51042;49.696;10.808;2023-02-15T11:07:51;99795.09;;;0.91;99.60
64080;BME280;51042;49.696;10.808;2023-02-15T11:10:26;99790.16;;;1.05;100.00
64080;BME280;51042;49.696;10.808;2023-02-15T11:12:53;99790.16;;;1.05;99.70
64080;BME280;51042;49.696;10.808;2023-02-15T11:17:50;99779.91;;;1.11;98.82
64080;BME280;51042;49.696;10.808;2023-02-15T11:20:27;99775.84;;;1.05;98.95
64080;BME280;51042;49.696;10.808;2023-02-15T11:22:54;99784.28;;;1.03;98.58
64080;BME280;51042;49.696;10.808;2023-02-15T11:25:28;99777.66;;;1.13;98.43
64080;BME280;51042;49.696;10.808;2023-02-15T11:27:55;99779.44;;;0.97;97.30
64080;BME280;51042;49.696;10.808;2023-02-15T11:30:21;99778.22;;;0.82;96.42
64080;BME280;51042;49.696;10.808;2023-02-15T11:32:47;99774.34;;;0.59;100.00
64080;BME280;51042;49.696;10.808;2023-02-15T11:35:20;99764.13;;;0.76;99.76
64080;BME280;51042;49.696;10.808;2023-02-15T11:37:49;99758.81;;;0.56;100.00
64080;BME280;51042;49.696;10.808;2023-02-15T11:42:45;99760.72;;;0.55;100.00
64080;BME280;51042;49.696;10.808;2023-02-15T11:45:22;99764.34;;;0.59;100.00
64080;BME280;51042;49.696;10.808;2023-02-15T11:47:48;99760.88;;;0.71;100.00
64080;BME280;51042;49.696;10.808;2023-02-15T11:50:14;99748.50;;;0.94;100.00
64080;BME280;51042;49.696;10.808;2023-02-15T11:52:40;99738.81;;;1.17;99.75
64080;BME280;51042;49.696;10.808;2023-02-15T11:55:09;99738.88;;;1.33;99.33
64080;BME280;51042;49.696;10.808;2023-02-15T11:57:37;99733.63;;;1.25;95.47
64080;BME280;51042;49.696;10.808;2023-02-15T12:00:14;99736.59;;;1.59;97.97
64080;BME280;51042;49.696;10.808;2023-02-15T12:02:45;99720.81;;;1.49;93.13
64080;BME280;51042;49.696;10.808;2023-02-15T12:05:13;99723.78;;;1.32;97.73
64080;BME280;51042;49.696;10.808;2023-02-15T12:07:42;99716.72;;;1.03;96.69
64080;BME280;51042;49.696;10.808;2023-02-15T12:12:39;99720.75;;;1.34;97.25
64080;BME280;51042;49.696;10.808;2023-02-15T12:15:05;99728.72;;;1.54;96.79
64080;BME280;51042;49.696;10.808;2023-02-15T12:17:32;99721.50;;;1.86;96.49
64080;BME280;51042;49.696;10.808;2023-02-15T12:20:00;99727.59;;;2.11;94.02
64080;BME280;51042;49.696;10.808;2023-02-15T12:22:27;99729.25;;;2.16;93.35
64080;BME280;51042;49.696;10.808;2023-02-15T12:24:55;99728.63;;;2.07;92.75
64080;BME280;51042;49.696;10.808;2023-02-15T12:27:22;99722.78;;;2.04;93.25
64080;BME280;51042;49.696;10.808;2023-02-15T12:29:52;99727.31;;;2.00;93.75
64080;BME280;51042;49.696;10.808;2023-02-15T12:32:19;99728.06;;;2.29;94.22
64080;BME280;51042;49.696;10.808;2023-02-15T12:34:46;99718.63;;;2.23;91.97
64080;BME280;51042;49.696;10.808;2023-02-15T12:37:17;99720.59;;;2.10;91.79
64080;BME280;51042;49.696;10.808;2023-02-15T12:40:01;99717.34;;;1.49;94.13
64080;BME280;51042;49.696;10.808;2023-02-15T12:42:28;99710.75;;;1.22;97.22
64080;BME280;51042;49.696;10.808;2023-02-15T12:45:01;99712.88;;;1.16;98.33
64080;BME280;51042;49.696;10.808;2023-02-15T12:47:27;99707.13;;;1.30;98.96
64080;BME280;51042;49.696;10.808;2023-02-15T12:50:04;99694.72;;;1.69;99.38
64080;BME280;51042;49.696;10.808;2023-02-15T12:52:30;99703.53;;;1.94;97.45
64080;BME280;51042;49.696;10.808;2023-02-15T12:54:55;99699.78;;;2.26;96.31
64080;BME280;51042;49.696;10.808;2023-02-15T12:57:34;99689.41;;;2.44;93.37
64080;BME280;51042;49.696;10.808;2023-02-15T13:00:00;99695.69;;;2.48;91.89
64080;BME280;51042;49.696;10.808;2023-02-15T13:02:36;99685.97;;;2.31;92.44
64080;BME280;51042;49.696;10.808;2023-02-15T13:07:52;99685.56;;;2.61;92.70
64080;BME280;51042;49.696;10.808;2023-02-15T13:10:29;99686.59;;;2.56;91.59
64080;BME280;51042;49.696;10.808;2023-02-15T13:12:55;99676.78;;;2.52;92.20
64080;BME280;51042;49.696;10.808;2023-02-15T13:15:39;99681.25;;;2.28;92.38
64080;BME280;51042;49.696;10.808;2023-02-15T13:18:05;99689.66;;;2.55;93.17
64080;BME280;51042;49.696;10.808;2023-02-15T13:20:35;99675.22;;;2.66;91.14
64080;BME280;51042;49.696;10.808;2023-02-15T13:23:02;99678.03;;;2.54;90.75
64080;BME280;51042;49.696;10.808;2023-02-15T13:25:32;99676.44;;;2.22;91.94
64080;BME280;51042;49.696;10.808;2023-02-15T13:28:04;99674.03;;;2.04;93.31
64080;BME280;51042;49.696;10.808;2023-02-15T13:30:31;99673.56;;;1.87;94.80
64080;BME280;51042;49.696;10.808;2023-02-15T13:33:02;99680.44;;;2.12;95.46
64080;BME280;51042;49.696;10.808;2023-02-15T13:35:29;99680.56;;;2.31;95.01
64080;BME280;51042;49.696;10.808;2023-02-15T13:38:06;99676.28;;;2.46;93.38
64080;BME280;51042;49.696;10.808;2023-02-15T13:40:46;99675.66;;;2.53;92.93
64080;BME280;51042;49.696;10.808;2023-02-15T13:43:36;99672.78;;;2.61;92.16
64080;BME280;51042;49.696;10.808;2023-02-15T13:46:20;99672.50;;;2.51;92.08